sensor_id;sensor_type;location;lat;lon;timestamp;noise_LAeq;noise_LA_min;noise_LA_max;noise_LA01;noise_LA95
1754;Laerm;58380;48.312;9.246;2023-03-12T07:01:20;41.37;31.67;55.44;;
1754;Laerm;58380;48.312;9.246;2023-03-12T07:03:45;41.72;32.35;54.28;;
1754;Laerm;58380;48.312;9.246;2023-03-12T07:06:16;39.97;31.75;49.87;;
1754;Laerm;58380;48.312;9.246;2023-03-12T07:08:42;39.10;33.00;57.16;;
1754;Laerm;58380;48.312;9.246;2023-03-12T07:11:08;41.17;30.16;56.14;;
1754;Laerm;58380;48.312;9.246;2023-03-12T07:13:33;40.99;31.19;59.48;;
1754;Laerm;58380;48.312;9.246;2023-03-12T07:15:59;38.30;30.88;53.33;;
1754;Laerm;58380;48.312;9.246;2023-03-12T07:18:24;39.96;30.98;50.13;;
1754;Laerm;58380;48.312;9.246;2023-03-12T07:20:50;39.87;31.12;58.27;;
1754;Laerm;58380;48.312;9.246;2023-03-12T07:23:16;41.20;31.31;52.23;;
1754;Laerm;58380;48.312;9.246;2023-03-12T07:25:43;38.69;30.53;51.19;;
1754;Laerm;58380;48.312;9.246;2023-03-12T07:28:10;38.19;30.80;51.53;;
1754;Laerm;58380;48.312;9.246;2023-03-12T07:30:36;41.45;30.65;54.97;;
1754;Laerm;58380;48.312;9.246;2023-03-12T07:33:03;39.16;30.09;57.49;;
1754;Laerm;58380;48.312;9.246;2023-03-12T07:35:29;40.01;31.97;54.13;;
1754;Laerm;58380;48.312;9.246;2023-03-12T07:37:55;42.90;30.24;59.63;;
1754;Laerm;58380;48.312;9.246;2023-03-12T07:40:21;39.90;30.74;50.87;;
1754;Laerm;58380;48.312;9.246;2023-03-12T07:45:14;39.76;31.01;50.60;;
1754;Laerm;58380;48.312;9.246;2023-03-12T07:47:40;42.92;33.00;56.76;;
1754;Laerm;58380;48.312;9.246;2023-03-12T07:50:28;40.59;31.86;54.48;;
1754;Laerm;58380;48.312;9.246;2023-03-12T07:53:11;41.09;31.78;57.36;;
1754;Laerm;58380;48.312;9.246;2023-03-12T07:58:16;41.44;32.99;55.81;;
1754;Laerm;58380;48.312;9.246;2023-03-12T08:00:41;43.01;32.51;58.55;;
1754;Laerm;58380;48.312;9.246;2023-03-12T08:03:06;42.89;33.52;58.03;;
1754;Laerm;58380;48.312;9.246;2023-03-12T08:05:32;42.54;33.47;59.32;;
1754;Laerm;58380;48.312;9.246;2023-03-12T08:07:57;42.77;33.87;58.50;;
1754;Laerm;58380;48.312;9.246;2023-03-12T08:10:22;41.98;33.69;57.29;;
1754;Laerm;58380;48.312;9.246;2023-03-12T08:12:48;41.54;33.72;58.41;;
1754;Laerm;58380;48.312;9.246;2023-03-12T08:15:14;43.58;35.35;58.20;;
1754;Laerm;58380;48.312;9.246;2023-03-12T08:17:40;43.13;34.40;58.33;;
1754;Laerm;58380;48.312;9.246;2023-03-12T08:20:06;42.63;33.65;52.42;;
1754;Laerm;58380;48.312;9.246;2023-03-12T08:22:35;39.96;32.01;53.01;;
1754;Laerm;58380;48.312;9.246;2023-03-12T08:25:01;42.64;32.84;57.71;;
1754;Laerm;58380;48.312;9.246;2023-03-12T08:27:27;45.18;32.08;59.37;;
1754;Laerm;58380;48.312;9.246;2023-03-12T08:29:52;42.50;32.16;57.47;;
1754;Laerm;58380;48.312;9.246;2023-03-12T08:32:17;40.85;31.42;50.12;;
1754;Laerm;58380;48.312;9.246;2023-03-12T08:34:43;39.33;31.76;53.64;;
1754;Laerm;58380;48.312;9.246;2023-03-12T08:37:08;47.37;32.87;69.81;;
1754;Laerm;58380;48.312;9.246;2023-03-12T08:39:33;42.64;33.34;57.72;;
1754;Laerm;58380;48.312;9.246;2023-03-12T08:41:59;41.53;33.44;55.75;;
1754;Laerm;58380;48.312;9.246;2023-03-12T08:44:25;42.33;32.49;62.41;;
1754;Laerm;58380;48.312;9.246;2023-03-12T08:46:52;42.64;34.32;58.88;;
1754;Laerm;58380;48.312;9.246;2023-03-12T08:49:19;40.75;33.12;56.97;;
1754;Laerm;58380;48.312;9.246;2023-03-12T08:51:44;45.08;31.97;59.51;;
1754;Laerm;58380;48.312;9.246;2023-03-12T08:54:09;48.55;34.48;67.18;;
1754;Laerm;58380;48.312;9.246;2023-03-12T08:56:35;43.58;33.61;57.85;;
1754;Laerm;58380;48.312;9.246;2023-03-12T12:03:29;60.46;34.68;91.58;;
1754;Laerm;58380;48.312;9.246;2023-03-12T12:08:57;71.52;35.90;103.91;;
1754;Laerm;58380;48.312;9.246;2023-03-12T12:12:28;43.86;36.66;53.33;;
1754;Laerm;58380;48.312;9.246;2023-03-12T12:16:22;43.16;35.79;56.28;;
1754;Laerm;58380;48.312;9.246;2023-03-12T12:27:28;42.55;37.09;53.87;;
1754;Laerm;58380;48.312;9.246;2023-03-12T12:35:48;41.75;34.62;54.65;;
1754;Laerm;58380;48.312;9.246;2023-03-12T12:38:28;43.60;36.97;57.06;;
1754;Laerm;58380;48.312;9.246;2023-03-12T12:41:11;43.30;36.50;56.04;;
1754;Laerm;58380;48.312;9.246;2023-03-12T12:43:50;42.82;36.51;59.08;;
1754;Laerm;58380;48.312;9.246;2023-03-12T12:46:22;43.31;38.03;53.38;;
1754;Laerm;58380;48.312;9.246;2023-03-12T12:48:55;44.16;38.18;57.68;;
1754;Laerm;58380;48.312;9.246;2023-03-12T12:51:31;42.65;36.75;51.69;;
1754;Laerm;58380;48.312;9.246;2023-03-12T12:57:12;43.35;35.17;69.06;;
1754;Laerm;58380;48.312;9.246;2023-03-12T13:02:22;47.74;33.47;60.45;;
1754;Laerm;58380;48.312;9.246;2023-03-12T13:04:56;43.59;37.11;54.00;;
1754;Laerm;58380;48.312;9.246;2023-03-12T13:09:55;42.48;34.81;54.07;;
1754;Laerm;58380;48.312;9.246;2023-03-12T13:12:41;41.38;34.13;52.22;;
1754;Laerm;58380;48.312;9.246;2023-03-12T13:20:39;43.35;35.78;57.57;;
1754;Laerm;58380;48.312;9.246;2023-03-12T13:23:34;40.08;33.69;50.87;;
1754;Laerm;58380;48.312;9.246;2023-03-12T13:29:22;45.08;33.33;60.82;;
1754;Laerm;58380;48.312;9.246;2023-03-12T13:32:04;47.98;33.61;68.31;;
1754;Laerm;58380;48.312;9.246;2023-03-12T13:34:42;45.36;32.98;59.34;;
1754;Laerm;58380;48.312;9.246;2023-03-12T13:43:14;44.94;36.30;60.30;;
1754;Laerm;58380;48.312;9.246;2023-03-12T13:46:04;43.92;34.57;60.36;;
1754;Laerm;58380;48.312;9.246;2023-03-12T13:48:33;39.68;32.78;49.66;;
1754;Laerm;58380;48.312;9.246;2023-03-12T13:51:14;42.31;34.59;54.20;;
1754;Laerm;58380;48.312;9.246;2023-03-12T13:53:41;40.23;32.32;55.64;;
1754;Laerm;58380;48.312;9.246;2023-03-12T13:56:16;42.93;35.63;59.18;;
1754;Laerm;58380;48.312;9.246;2023-03-12T13:58:55;43.77;37.33;55.26;;
1754;Laerm;58380;48.312;9.246;2023-03-12T14:01:28;48.93;35.74;67.43;;
1754;Laerm;58380;48.312;9.246;2023-03-12T14:04:01;47.69;37.72;63.73;;
1754;Laerm;58380;48.312;9.246;2023-03-12T14:06:35;41.05;34.19;50.99;;
1754;Laerm;58380;48.312;9.246;2023-03-12T14:12:18;41.34;33.57;56.57;;
1754;Laerm;58380;48.312;9.246;2023-03-12T14:15:03;40.81;35.56;61.50;;
1754;Laerm;58380;48.312;9.246;2023-03-12T14:17:33;41.40;34.70;49.53;;
1754;Laerm;58380;48.312;9.246;2023-03-12T14:20:14;44.75;32.44;65.65;;
1754;Laerm;58380;48.312;9.246;2023-03-12T14:22:44;41.25;32.02;55.24;;
1754;Laerm;58380;48.312;9.246;2023-03-12T14:25:38;41.21;32.80;55.05;;
1754;Laerm;58380;48.312;9.246;2023-03-12T14:28:16;47.81;33.68;66.29;;
1754;Laerm;58380;48.312;9.246;2023-03-12T14:30:58;47.31;34.35;61.29;;
1754;Laerm;58380;48.312;9.246;2023-03-12T14:33:31;41.92;33.38;57.57;;
1754;Laerm;58380;48.312;9.246;2023-03-12T14:36:08;48.01;35.02;67.86;;
1754;Laerm;58380;48.312;9.246;2023-03-12T14:38:43;43.58;35.62;59.42;;
1754;Laerm;58380;48.312;9.246;2023-03-12T14:41:26;44.78;35.68;62.08;;
1754;Laerm;58380;48.312;9.246;2023-03-12T14:44:19;40.82;31.95;53.32;;
1754;Laerm;58380;48.312;9.246;2023-03-12T14:46:54;41.48;32.59;56.70;;
1754;Laerm;58380;48.312;9.246;2023-03-12T14:49:20;42.45;35.29;51.49;;
1754;Laerm;58380;48.312;9.246;2023-03-12T14:51:45;43.50;35.69;50.33;;
1754;Laerm;58380;48.312;9.246;2023-03-12T14:54:18;43.72;35.17;54.92;;
1754;Laerm;58380;48.312;9.246;2023-03-12T14:56:45;42.98;36.59;51.81;;
1754;Laerm;58380;48.312;9.246;2023-03-12T14:59:33;41.45;34.63;54.02;;
1754;Laerm;58380;48.312;9.246;2023-03-12T15:02:13;41.86;33.59;51.87;;
1754;Laerm;58380;48.312;9.246;2023-03-12T15:04:40;39.11;33.63;48.46;;
1754;Laerm;58380;48.312;9.246;2023-03-12T15:07:10;42.77;34.54;65.44;;
1754;Laerm;58380;48.312;9.246;2023-03-12T15:09:43;42.86;36.97;52.58;;
1754;Laerm;58380;48.312;9.246;2023-03-12T15:12:22;41.55;35.09;53.87;;
1754;Laerm;58380;48.312;9.246;2023-03-12T15:14:54;42.85;35.29;54.73;;
1754;Laerm;58380;48.312;9.246;2023-03-12T15:17:26;43.48;36.79;51.57;;
1754;Laerm;58380;48.312;9.246;2023-03-12T15:19:53;42.87;37.34;51.75;;
1754;Laerm;58380;48.312;9.246;2023-03-12T15:22:24;41.56;35.39;52.25;;
1754;Laerm;58380;48.312;9.246;2023-03-12T15:24:52;42.11;34.20;51.96;;
1754;Laerm;58380;48.312;9.246;2023-03-12T15:29:50;41.37;33.21;56.23;;
1754;Laerm;58380;48.312;9.246;2023-03-12T15:32:19;43.30;37.98;50.70;;
1754;Laerm;58380;48.312;9.246;2023-03-12T15:34:46;41.85;34.68;51.26;;
1754;Laerm;58380;48.312;9.246;2023-03-12T15:37:34;40.59;33.65;50.63;;
1754;Laerm;58380;48.312;9.246;2023-03-12T15:40:20;43.87;36.78;55.45;;
1754;Laerm;58380;48.312;9.246;2023-03-12T15:42:47;41.44;34.12;53.64;;
1754;Laerm;58380;48.312;9.246;2023-03-12T15:45:24;42.61;35.18;53.85;;
1754;Laerm;58380;48.312;9.246;2023-03-12T15:47:53;43.98;37.86;57.97;;
1754;Laerm;58380;48.312;9.246;2023-03-12T15:50:36;44.74;33.23;65.85;;
1754;Laerm;58380;48.312;9.246;2023-03-12T15:55:37;42.62;36.10;61.99;;
1754;Laerm;58380;48.312;9.246;2023-03-12T15:58:28;43.83;36.53;58.65;;
1754;Laerm;58380;48.312;9.246;2023-03-12T16:01:10;44.94;34.83;64.10;;
1754;Laerm;58380;48.312;9.246;2023-03-12T16:03:37;48.17;33.93;66.85;;
1754;Laerm;58380;48.312;9.246;2023-03-12T16:06:04;39.51;31.69;52.52;;
1754;Laerm;58380;48.312;9.246;2023-03-12T16:08:35;43.54;33.84;54.28;;
1754;Laerm;58380;48.312;9.246;2023-03-12T16:11:02;44.91;33.41;62.52;;
1754;Laerm;58380;48.312;9.246;2023-03-12T16:13:30;44.95;34.77;54.97;;
1754;Laerm;58380;48.312;9.246;2023-03-12T16:15:57;45.05;34.29;59.95;;
1754;Laerm;58380;48.312;9.246;2023-03-12T16:18:23;46.88;36.37;63.95;;
1754;Laerm;58380;48.312;9.246;2023-03-12T16:20:51;41.23;34.87;49.48;;
1754;Laerm;58380;48.312;9.246;2023-03-12T16:23:17;41.82;33.91;58.16;;
1754;Laerm;58380;48.312;9.246;2023-03-12T16:25:47;41.08;33.72;55.14;;
1754;Laerm;58380;48.312;9.246;2023-03-12T16:28:16;42.55;35.97;49.49;;
1754;Laerm;58380;48.312;9.246;2023-03-12T16:30:43;42.90;36.04;50.39;;
1754;Laerm;58380;48.312;9.246;2023-03-12T16:33:15;40.82;35.81;50.50;;
1754;Laerm;58380;48.312;9.246;2023-03-12T16:35:40;42.61;36.06;51.32;;
1754;Laerm;58380;48.312;9.246;2023-03-12T16:38:06;41.29;35.31;49.95;;
1754;Laerm;58380;48.312;9.246;2023-03-12T16:40:35;41.13;33.27;61.29;;
1754;Laerm;58380;48.312;9.246;2023-03-12T16:43:03;42.41;36.25;51.27;;
1754;Laerm;58380;48.312;9.246;2023-03-12T16:45:35;43.43;35.58;59.61;;
1754;Laerm;58380;48.312;9.246;2023-03-12T16:48:04;41.58;32.38;51.42;;
1754;Laerm;58380;48.312;9.246;2023-03-12T16:50:31;41.93;35.80;59.39;;
1754;Laerm;58380;48.312;9.246;2023-03-12T16:52:56;42.93;35.24;50.82;;
1754;Laerm;58380;48.312;9.246;2023-03-12T16:55:29;43.19;36.03;55.33;;
1754;Laerm;58380;48.312;9.246;2023-03-12T16:58:01;43.36;34.55;59.81;;
1754;Laerm;58380;48.312;9.246;2023-03-12T17:00:29;43.86;35.62;57.63;;
1754;Laerm;58380;48.312;9.246;2023-03-12T17:02:57;45.10;38.68;56.93;;
1754;Laerm;58380;48.312;9.246;2023-03-12T17:05:28;43.31;33.96;55.84;;
1754;Laerm;58380;48.312;9.246;2023-03-12T17:07:55;42.00;34.48;58.83;;
1754;Laerm;58380;48.312;9.246;2023-03-12T17:10:23;42.48;35.57;55.05;;
1754;Laerm;58380;48.312;9.246;2023-03-12T17:12:49;43.38;33.94;61.01;;
1754;Laerm;58380;48.312;9.246;2023-03-12T17:15:24;44.64;33.63;60.68;;
1754;Laerm;58380;48.312;9.246;2023-03-12T17:17:51;46.68;31.85;64.22;;
1754;Laerm;58380;48.312;9.246;2023-03-12T17:20:19;48.61;34.96;63.39;;
1754;Laerm;58380;48.312;9.246;2023-03-12T17:22:45;49.52;37.33;63.98;;
1754;Laerm;58380;48.312;9.246;2023-03-12T17:25:24;48.84;32.26;67.15;;
1754;Laerm;58380;48.312;9.246;2023-03-12T17:27:50;46.76;34.64;63.86;;
1754;Laerm;58380;48.312;9.246;2023-03-12T17:30:16;45.17;31.01;62.85;;
1754;Laerm;58380;48.312;9.246;2023-03-12T17:32:41;44.88;32.44;59.27;;
1754;Laerm;58380;48.312;9.246;2023-03-12T17:35:07;46.22;35.68;59.59;;
1754;Laerm;58380;48.312;9.246;2023-03-12T17:37:33;43.30;32.28;59.63;;
1754;Laerm;58380;48.312;9.246;2023-03-12T17:39:59;42.93;35.11;50.81;;
1754;Laerm;58380;48.312;9.246;2023-03-12T17:42:33;43.47;32.94;57.13;;
1754;Laerm;58380;48.312;9.246;2023-03-12T17:45:01;42.95;31.67;63.99;;
1754;Laerm;58380;48.312;9.246;2023-03-12T17:47:27;43.71;33.21;56.37;;
1754;Laerm;58380;48.312;9.246;2023-03-12T17:49:52;45.21;35.32;61.63;;
1754;Laerm;58380;48.312;9.246;2023-03-12T17:52:18;43.96;34.19;55.96;;
1754;Laerm;58380;48.312;9.246;2023-03-12T17:54:43;50.41;35.60;66.91;;
1754;Laerm;58380;48.312;9.246;2023-03-12T17:57:09;44.51;33.86;60.80;;
1754;Laerm;58380;48.312;9.246;2023-03-12T17:59:34;43.36;33.53;64.59;;
1754;Laerm;58380;48.312;9.246;2023-03-12T18:02:00;44.43;33.50;63.75;;
1754;Laerm;58380;48.312;9.246;2023-03-12T18:04:25;44.50;36.88;53.27;;
1754;Laerm;58380;48.312;9.246;2023-03-12T18:06:51;40.20;30.49;48.01;;
1754;Laerm;58380;48.312;9.246;2023-03-12T18:09:16;40.69;31.95;49.89;;
1754;Laerm;58380;48.312;9.246;2023-03-12T18:11:42;49.81;29.46;71.53;;
1754;Laerm;58380;48.312;9.246;2023-03-12T18:14:07;43.17;36.98;52.26;;
1754;Laerm;58380;48.312;9.246;2023-03-12T18:16:33;42.62;31.85;58.46;;
1754;Laerm;58380;48.312;9.246;2023-03-12T18:18:58;40.70;33.56;49.21;;
1754;Laerm;58380;48.312;9.246;2023-03-12T18:21:24;41.82;33.08;50.95;;
1754;Laerm;58380;48.312;9.246;2023-03-12T18:23:49;41.97;31.29;49.72;;
1754;Laerm;58380;48.312;9.246;2023-03-12T18:26:15;42.98;33.67;52.66;;
1754;Laerm;58380;48.312;9.246;2023-03-12T18:28:40;42.28;33.09;50.05;;
1754;Laerm;58380;48.312;9.246;2023-03-12T18:31:07;42.22;31.40;51.88;;
1754;Laerm;58380;48.312;9.246;2023-03-12T18:33:32;41.76;33.78;50.90;;
1754;Laerm;58380;48.312;9.246;2023-03-12T18:36:00;42.63;31.77;52.76;;
1754;Laerm;58380;48.312;9.246;2023-03-12T18:38:26;41.32;32.97;50.36;;
1754;Laerm;58380;48.312;9.246;2023-03-12T18:41:01;44.44;34.89;52.72;;
1754;Laerm;58380;48.312;9.246;2023-03-12T18:43:26;42.51;33.56;63.87;;
1754;Laerm;58380;48.312;9.246;2023-03-12T18:45:52;42.17;31.76;52.58;;
1754;Laerm;58380;48.312;9.246;2023-03-12T18:48:17;41.56;31.35;55.09;;
1754;Laerm;58380;48.312;9.246;2023-03-12T18:50:42;41.76;31.05;54.09;;
1754;Laerm;58380;48.312;9.246;2023-03-12T18:53:08;40.99;31.86;53.15;;
1754;Laerm;58380;48.312;9.246;2023-03-12T18:55:33;41.94;32.77;49.80;;
1754;Laerm;58380;48.312;9.246;2023-03-12T18:57:59;39.91;32.08;51.82;;
1754;Laerm;58380;48.312;9.246;2023-03-12T19:00:24;41.79;32.29;49.80;;
1754;Laerm;58380;48.312;9.246;2023-03-12T19:02:50;41.10;33.88;64.75;;
1754;Laerm;58380;48.312;9.246;2023-03-12T19:05:16;41.39;33.52;50.98;;
1754;Laerm;58380;48.312;9.246;2023-03-12T19:07:41;40.58;33.62;47.67;;
1754;Laerm;58380;48.312;9.246;2023-03-12T19:10:08;42.16;33.31;52.38;;
1754;Laerm;58380;48.312;9.246;2023-03-12T19:12:34;42.18;31.70;52.81;;
1754;Laerm;58380;48.312;9.246;2023-03-12T19:14:59;41.78;32.75;55.45;;
1754;Laerm;58380;48.312;9.246;2023-03-12T19:17:25;39.25;30.46;50.04;;
1754;Laerm;58380;48.312;9.246;2023-03-12T19:19:50;39.78;31.25;52.49;;
1754;Laerm;58380;48.312;9.246;2023-03-12T19:22:16;45.59;32.05;57.24;;
1754;Laerm;58380;48.312;9.246;2023-03-12T19:24:42;40.86;31.70;50.31;;
1754;Laerm;58380;48.312;9.246;2023-03-12T19:27:08;42.37;31.95;55.21;;
1754;Laerm;58380;48.312;9.246;2023-03-12T19:29:33;42.30;30.76;56.84;;
1754;Laerm;58380;48.312;9.246;2023-03-12T19:31:59;42.86;33.64;50.96;;
1754;Laerm;58380;48.312;9.246;2023-03-12T19:34:24;40.81;29.49;51.49;;
1754;Laerm;58380;48.312;9.246;2023-03-12T19:36:50;38.57;29.86;47.91;;
1754;Laerm;58380;48.312;9.246;2023-03-12T19:39:15;42.83;33.86;51.97;;
1754;Laerm;58380;48.312;9.246;2023-03-12T19:41:40;43.34;33.64;50.00;;
1754;Laerm;58380;48.312;9.246;2023-03-12T19:44:06;40.28;30.48;47.54;;
1754;Laerm;58380;48.312;9.246;2023-03-12T19:46:32;37.98;31.57;45.32;;
1754;Laerm;58380;48.312;9.246;2023-03-12T19:48:58;40.82;30.62;47.98;;
1754;Laerm;58380;48.312;9.246;2023-03-12T19:51:23;39.54;33.15;48.52;;
1754;Laerm;58380;48.312;9.246;2023-03-12T19:53:50;41.26;30.92;55.78;;
1754;Laerm;58380;48.312;9.246;2023-03-12T19:56:16;37.65;31.01;46.68;;
1754;Laerm;58380;48.312;9.246;2023-03-12T19:58:42;38.22;31.41;47.40;;
1754;Laerm;58380;48.312;9.246;2023-03-12T20:01:08;40.38;30.71;50.31;;
1754;Laerm;58380;48.312;9.246;2023-03-12T20:03:33;40.48;29.93;52.03;;
1754;Laerm;58380;48.312;9.246;2023-03-12T20:05:59;41.22;31.42;50.22;;
1754;Laerm;58380;48.312;9.246;2023-03-12T20:08:24;41.42;33.71;49.32;;
1754;Laerm;58380;48.312;9.246;2023-03-12T20:11:04;40.96;31.98;53.14;;
1754;Laerm;58380;48.312;9.246;2023-03-12T20:13:30;36.75;30.28;44.77;;
1754;Laerm;58380;48.312;9.246;2023-03-12T20:15:55;39.41;30.53;50.07;;
1754;Laerm;58380;48.312;9.246;2023-03-12T20:18:21;34.77;30.34;42.48;;
1754;Laerm;58380;48.312;9.246;2023-03-12T20:20:47;40.64;32.54;47.98;;
1754;Laerm;58380;48.312;9.246;2023-03-12T20:23:13;39.07;31.32;47.91;;
1754;Laerm;58380;48.312;9.246;2023-03-12T20:25:40;39.30;31.84;46.72;;
1754;Laerm;58380;48.312;9.246;2023-03-12T20:28:07;37.24;30.37;44.46;;
1754;Laerm;58380;48.312;9.246;2023-03-12T20:30:37;39.94;31.04;48.72;;
1754;Laerm;58380;48.312;9.246;2023-03-12T20:33:05;42.21;32.55;51.04;;
1754;Laerm;58380;48.312;9.246;2023-03-12T20:35:35;39.78;30.07;51.99;;
1754;Laerm;58380;48.312;9.246;2023-03-12T20:38:01;41.20;30.02;53.66;;
1754;Laerm;58380;48.312;9.246;2023-03-12T20:40:27;35.91;30.17;45.54;;
1754;Laerm;58380;48.312;9.246;2023-03-12T20:42:52;42.65;32.43;51.73;;
1754;Laerm;58380;48.312;9.246;2023-03-12T20:45:18;39.67;30.43;49.64;;
1754;Laerm;58380;48.312;9.246;2023-03-12T20:47:43;40.44;30.25;52.98;;
1754;Laerm;58380;48.312;9.246;2023-03-12T20:50:09;42.38;31.16;59.20;;
1754;Laerm;58380;48.312;9.246;2023-03-12T20:52:35;39.33;30.23;47.71;;
1754;Laerm;58380;48.312;9.246;2023-03-12T20:55:00;35.78;29.24;47.12;;
1754;Laerm;58380;48.312;9.246;2023-03-12T20:57:26;39.52;29.17;52.03;;
1754;Laerm;58380;48.312;9.246;2023-03-12T20:59:51;39.32;30.60;49.93;;
1754;Laerm;58380;48.312;9.246;2023-03-12T21:02:17;37.51;30.55;47.77;;
1754;Laerm;58380;48.312;9.246;2023-03-12T21:04:42;40.26;29.70;52.39;;
1754;Laerm;58380;48.312;9.246;2023-03-12T21:07:08;34.27;29.67;41.96;;
1754;Laerm;58380;48.312;9.246;2023-03-12T21:09:33;41.91;30.98;53.12;;
1754;Laerm;58380;48.312;9.246;2023-03-12T21:11:59;38.93;29.45;53.18;;
1754;Laerm;58380;48.312;9.246;2023-03-12T21:14:25;41.51;29.30;50.71;;
1754;Laerm;58380;48.312;9.246;2023-03-12T21:16:51;39.87;30.79;51.13;;
1754;Laerm;58380;48.312;9.246;2023-03-12T21:19:16;36.71;29.63;49.06;;
1754;Laerm;58380;48.312;9.246;2023-03-12T21:21:42;38.65;29.89;46.88;;
1754;Laerm;58380;48.312;9.246;2023-03-12T21:24:07;36.18;29.92;47.50;;
1754;Laerm;58380;48.312;9.246;2023-03-12T21:26:33;36.17;28.54;47.73;;
1754;Laerm;58380;48.312;9.246;2023-03-12T21:28:58;38.78;29.89;52.00;;
1754;Laerm;58380;48.312;9.246;2023-03-12T21:31:24;41.34;31.77;51.16;;
1754;Laerm;58380;48.312;9.246;2023-03-12T21:33:58;37.72;29.57;49.57;;
1754;Laerm;58380;48.312;9.246;2023-03-12T21:36:24;33.84;28.91;43.94;;
1754;Laerm;58380;48.312;9.246;2023-03-12T21:38:50;35.30;28.08;48.93;;
1754;Laerm;58380;48.312;9.246;2023-03-12T21:41:19;30.34;28.17;43.35;;
1754;Laerm;58380;48.312;9.246;2023-03-12T21:43:45;38.64;29.22;53.53;;
1754;Laerm;58380;48.312;9.246;2023-03-12T21:46:15;38.66;28.53;51.21;;
